Time;durP1;ratioP1;P1;durP2;ratioP2;P2;SDS_P1;SDS_P2;PMS_P1;PMS_P2;Temp;Humidity;BMP_temperature;BMP_pressure;BME280_temperature;BME280_humidity;BME280_pressure;Samples;Min_cycle;Max_cycle;Signal;HPM_P1;HPM_P2
2021/04/23 00:01:35;;;;;;;14.00;5.88;;;;;;;4.97;70.45;101474.31;5083363;28;20054;-71
2021/04/23 00:04:04;;;;;;;19.83;5.88;;;;;;;5.08;70.93;101473.19;5093743;27;20611;-72
2021/04/23 00:06:40;;;;;;;22.25;5.80;;;;;;;5.10;70.32;101477.53;5097652;27;20130;-72
2021/04/23 00:09:15;;;;;;;;;;;;;;;5.14;69.99;101473.97;5078444;28;20051;-74
2021/04/23 00:11:46;;;;;;;19.70;6.20;;;;;;;5.12;71.06;101476.59;5091344;28;19929;-71
2021/04/23 00:14:15;;;;;;;19.88;6.38;;;;;;;5.19;70.19;101479.94;5084990;27;20107;-72
2021/04/23 00:16:42;;;;;;;17.92;5.38;;;;;;;5.25;70.61;101482.38;5105249;27;20535;-71
2021/04/23 00:19:12;;;;;;;19.48;6.32;;;;;;;5.32;70.21;101482.22;5078851;28;20490;-71
2021/04/23 00:21:40;;;;;;;14.50;6.20;;;;;;;5.42;69.58;101487.22;5088598;28;20055;-72
2021/04/23 00:24:07;;;;;;;18.10;5.78;;;;;;;5.40;69.59;101476.78;5058421;28;20069;-72
2021/04/23 00:26:34;;;;;;;15.35;5.70;;;;;;;5.37;70.44;101483.88;5066275;28;20054;-73
2021/04/23 00:29:01;;;;;;;13.55;6.10;;;;;;;5.28;69.55;101479.72;5084159;28;20589;-71
2021/04/23 00:31:27;;;;;;;18.55;5.97;;;;;;;5.47;69.64;101474.91;5086714;28;20134;-71
2021/04/23 00:33:55;;;;;;;14.65;6.30;;;;;;;5.39;69.59;101471.63;5071514;27;20155;-71
2021/04/23 00:36:22;;;;;;;20.75;6.65;;;;;;;5.37;70.58;101476.03;5075927;27;20514;-71
2021/04/23 00:38:49;;;;;;;13.88;5.63;;;;;;;5.38;70.51;101472.53;5072857;27;20047;-72
2021/04/23 00:41:22;;;;;;;19.08;6.10;;;;;;;5.28;72.08;101472.75;5105129;27;20062;-72
2021/04/23 00:43:56;;;;;;;18.60;6.35;;;;;;;5.28;72.83;101471.88;5088021;28;20103;-73
2021/04/23 00:46:28;;;;;;;18.98;6.78;;;;;;;5.12;73.69;101466.16;5074884;28;20142;-72
2021/04/23 00:48:55;;;;;;;19.85;6.38;;;;;;;5.08;73.64;101474.94;5085181;28;20048;-69
2021/04/23 00:51:25;;;;;;;22.73;6.97;;;;;;;5.07;73.76;101473.22;5084944;27;20083;-71
2021/04/23 00:53:53;;;;;;;19.65;6.75;;;;;;;5.03;73.55;101466.34;5091421;28;20060;-71
2021/04/23 00:56:22;;;;;;;19.63;8.00;;;;;;;4.94;74.17;101472.63;5085977;28;20219;-69
2021/04/23 00:58:49;;;;;;;18.75;7.70;;;;;;;4.92;73.71;101466.59;5092273;28;20094;-73
2021/04/23 01:01:22;;;;;;;21.85;8.10;;;;;;;4.90;73.86;101473.59;5087632;28;20070;-72
2021/04/23 01:03:50;;;;;;;22.20;7.75;;;;;;;4.93;73.87;101464.84;5069696;28;20107;-69
2021/04/23 01:06:19;;;;;;;18.00;7.18;;;;;;;4.91;73.77;101469.22;5100164;28;20087;-71
2021/04/23 01:08:47;;;;;;;16.17;7.60;;;;;;;4.80;74.95;101462.50;5096500;27;20121;-70
2021/04/23 01:11:17;;;;;;;20.33;7.32;;;;;;;4.88;74.15;101467.56;5074637;27;20044;-69
2021/04/23 01:13:44;;;;;;;25.20;7.20;;;;;;;4.91;73.84;101464.00;5097141;28;20410;-71
2021/04/23 01:16:19;;;;;;;19.60;7.28;;;;;;;4.90;74.14;101465.75;5113563;27;20054;-70
2021/04/23 01:18:48;;;;;;;15.20;6.75;;;;;;;4.87;74.75;101473.69;5085418;28;20068;-70
2021/04/23 01:21:32;;;;;;;16.80;6.57;;;;;;;4.65;75.63;101467.19;5049211;28;20051;-71
2021/04/23 01:24:00;;;;;;;13.18;6.07;;;;;;;4.76;75.80;101470.44;5084342;28;20514;-71
2021/04/23 01:26:29;;;;;;;25.23;6.85;;;;;;;4.66;76.31;101467.16;5089470;28;20143;-71
2021/04/23 01:28:57;;;;;;;22.45;7.38;;;;;;;4.57;77.38;101475.16;5083035;28;20048;-72
2021/04/23 01:31:26;;;;;;;17.30;7.65;;;;;;;4.71;77.21;101467.06;5062227;28;20062;-71
2021/04/23 01:33:56;;;;;;;16.92;7.22;;;;;;;4.69;76.89;101474.06;5103038;27;20100;-72
2021/04/23 01:36:23;;;;;;;20.88;7.18;;;;;;;4.65;76.92;101472.41;5069553;27;20557;-70
2021/04/23 01:38:50;;;;;;;18.55;7.05;;;;;;;4.59;77.61;101468.16;5099761;27;20316;-72
2021/04/23 01:41:20;;;;;;;19.05;6.55;;;;;;;4.75;77.37;101476.53;5095412;27;20149;-71
2021/04/23 01:43:48;;;;;;;17.38;7.45;;;;;;;4.74;76.69;101472.22;5067290;28;20110;-72
2021/04/23 01:46:16;;;;;;;22.30;6.78;;;;;;;4.77;77.03;101475.63;5081149;28;20518;-70
2021/04/23 01:48:43;;;;;;;17.88;7.45;;;;;;;4.89;76.40;101479.72;5088590;28;20072;-72
2021/04/23 01:51:12;;;;;;;17.25;6.95;;;;;;;4.94;76.51;101483.06;5105305;27;20150;-73
2021/04/23 01:53:40;;;;;;;21.20;7.05;;;;;;;4.92;76.94;101478.78;5055826;28;20628;-72
2021/04/23 01:56:07;;;;;;;15.15;6.85;;;;;;;5.02;76.57;101480.31;5077635;27;20091;-71
2021/04/23 01:58:36;;;;;;;24.75;7.97;;;;;;;4.95;77.63;101491.75;5086701;28;20138;-71
2021/04/23 02:01:05;;;;;;;21.83;7.07;;;;;;;5.03;77.29;101489.84;5089125;28;20105;-70
2021/04/23 02:03:33;;;;;;;17.52;6.63;;;;;;;5.05;77.58;101488.06;5101640;27;20047;-71
2021/04/23 02:06:00;;;;;;;20.08;7.68;;;;;;;5.11;77.52;101482.69;5052819;28;20060;-72
2021/04/23 02:08:27;;;;;;;16.83;7.47;;;;;;;5.07;77.56;101487.13;5071663;28;20043;-69
2021/04/23 02:11:04;;;;;;;15.93;6.18;;;;;;;5.07;77.43;101487.13;5096010;28;20105;-73
2021/04/23 02:13:31;;;;;;;15.88;6.60;;;;;;;5.27;77.26;101489.31;5076983;28;20238;-72
2021/04/23 02:15:58;;;;;;;19.67;7.85;;;;;;;5.34;76.03;101490.00;5087080;28;20115;-70
2021/04/23 02:18:25;;;;;;;20.35;7.43;;;;;;;5.24;76.90;101493.72;5091588;28;20086;-70
2021/04/23 02:20:53;;;;;;;12.30;6.35;;;;;;;5.38;76.55;101485.56;5078254;28;20045;-71
2021/04/23 02:23:21;;;;;;;16.80;7.43;;;;;;;5.27;77.23;101494.53;5082476;28;20044;-71
2021/04/23 02:25:50;;;;;;;22.67;7.90;;;;;;;5.16;77.44;101490.44;5108418;28;20076;-69
2021/04/23 02:28:17;;;;;;;21.77;6.90;;;;;;;5.41;76.65;101493.34;5085821;28;20139;-71
2021/04/23 02:31:00;;;;;;;19.13;8.43;;;;;;;5.42;77.04;101495.91;5078852;28;20115;-70
2021/04/23 02:33:27;;;;;;;19.73;7.35;;;;;;;5.34;76.93;101487.41;5090656;28;20050;-72
2021/04/23 02:35:55;;;;;;;19.13;8.93;;;;;;;5.43;76.58;101484.56;5059483;28;20048;-69
2021/04/23 02:38:22;;;;;;;17.38;7.60;;;;;;;5.51;76.57;101477.41;5076172;28;20035;-69
2021/04/23 02:40:49;;;;;;;19.17;7.70;;;;;;;5.47;76.79;101478.38;5101595;28;20048;-69
2021/04/23 02:43:20;;;;;;;19.70;7.47;;;;;;;5.45;76.41;101484.50;5086571;28;20257;-69
2021/04/23 02:45:48;;;;;;;20.95;7.95;;;;;;;5.31;77.56;101490.94;5105243;28;20179;-71
2021/04/23 02:48:15;;;;;;;23.98;6.72;;;;;;;5.40;76.80;101494.22;5092099;28;20493;-72
2021/04/23 02:51:03;;;;;;;20.90;7.85;;;;;;;5.28;78.13;101498.00;5098690;28;20134;-72
2021/04/23 02:53:30;;;;;;;15.95;6.88;;;;;;;5.27;78.32;101504.97;5081945;27;20078;-72
2021/04/23 02:55:57;;;;;;;24.70;8.55;;;;;;;5.25;78.04;101504.13;5064832;28;20065;-74
2021/04/23 02:58:26;;;;;;;17.30;7.63;;;;;;;5.26;77.74;101512.81;5066291;28;20097;-73
2021/04/23 03:01:02;;;;;;;18.70;7.45;;;;;;;5.35;77.04;101507.38;5086621;28;20511;-75
2021/04/23 03:03:29;;;;;;;22.60;7.90;;;;;;;5.23;77.24;101508.53;5085609;28;20082;-74
2021/04/23 03:05:59;;;;;;;25.75;7.65;;;;;;;5.14;77.88;101503.53;5099827;28;20051;-74
2021/04/23 03:08:26;;;;;;;22.23;7.45;;;;;;;5.10;77.77;101516.69;5100676;27;20048;-72
2021/04/23 03:11:08;;;;;;;17.90;8.00;;;;;;;5.12;77.78;101515.72;5094957;27;20052;-74
2021/04/23 03:13:35;;;;;;;16.08;6.93;;;;;;;5.13;78.08;101519.19;5102284;27;20054;-73
2021/04/23 03:16:03;;;;;;;18.58;8.05;;;;;;;5.06;77.35;101514.13;5086660;27;20161;-73
2021/04/23 03:18:31;;;;;;;20.10;7.47;;;;;;;4.93;78.33;101522.25;5105337;27;20062;-73
2021/04/23 03:21:00;;;;;;;21.63;8.35;;;;;;;4.98;78.58;101523.00;5060412;28;20052;-71
2021/04/23 03:23:28;;;;;;;21.10;7.63;;;;;;;5.15;77.73;101520.03;5066308;28;20058;-73
2021/04/23 03:25:55;;;;;;;22.38;8.93;;;;;;;5.05;78.28;101519.38;5079357;28;20124;-74
2021/04/23 03:28:22;;;;;;;24.63;8.25;;;;;;;5.07;78.34;101517.59;5088561;27;20054;-72
2021/04/23 03:30:48;;;;;;;27.23;8.18;;;;;;;4.91;78.08;101519.69;5099335;27;20048;-72
2021/04/23 03:33:16;;;;;;;23.17;8.90;;;;;;;4.85;79.46;101527.63;5108652;27;20502;-71
2021/04/23 03:35:50;;;;;;;26.58;8.65;;;;;;;4.92;78.73;101529.22;5095487;27;20059;-72
2021/04/23 03:38:18;;;;;;;25.25;8.63;;;;;;;4.98;78.70;101529.09;5088713;28;20090;-72
2021/04/23 03:40:47;;;;;;;23.52;8.80;;;;;;;4.99;78.73;101529.94;5094742;27;20109;-72
2021/04/23 03:43:14;;;;;;;21.35;9.05;;;;;;;4.94;78.57;101530.03;5104149;27;20054;-72
2021/04/23 03:45:40;;;;;;;24.42;8.98;;;;;;;4.98;79.31;101531.69;5094827;27;20617;-73
2021/04/23 03:48:08;;;;;;;22.52;8.70;;;;;;;4.92;79.34;101528.38;5100361;27;20090;-73
2021/04/23 03:50:37;;;;;;;21.00;9.35;;;;;;;4.88;80.05;101539.75;5077624;28;20143;-71
2021/04/23 03:53:07;;;;;;;34.17;9.07;;;;;;;5.00;79.11;101526.47;5082920;28;20128;-71
2021/04/23 03:55:38;;;;;;;25.35;8.90;;;;;;;5.07;78.75;101531.50;5077425;28;20367;-72
2021/04/23 03:58:05;;;;;;;26.23;8.88;;;;;;;4.97;79.14;101536.97;5090085;28;20135;-73
2021/04/23 04:00:40;;;;;;;34.38;9.88;;;;;;;4.87;80.13;101536.28;5093568;28;20116;-71
2021/04/23 04:03:07;;;;;;;29.05;10.05;;;;;;;4.86;80.07;101538.91;5081595;27;20156;-69
2021/04/23 04:05:34;;;;;;;28.92;9.50;;;;;;;4.95;79.85;101536.97;5095971;27;20066;-73
2021/04/23 04:08:02;;;;;;;19.58;9.05;;;;;;;5.03;79.57;101537.66;5062284;28;20055;-72
2021/04/23 04:10:29;;;;;;;22.33;9.90;;;;;;;5.03;79.93;101548.09;5087587;27;20115;-74
2021/04/23 04:12:55;;;;;;;21.65;9.18;;;;;;;5.15;79.83;101540.91;5065765;28;20105;-70
2021/04/23 04:15:24;;;;;;;28.38;9.70;;;;;;;5.08;79.61;101553.22;5070731;28;20071;-73
2021/04/23 04:17:51;;;;;;;20.65;9.10;;;;;;;5.03;80.06;101548.09;5069809;28;20572;-72
2021/04/23 04:20:19;;;;;;;28.10;10.30;;;;;;;5.05;80.27;101562.00;5083975;27;20078;-71
2021/04/23 04:22:46;;;;;;;24.20;8.82;;;;;;;5.11;79.41;101550.56;5061795;28;20060;-72
2021/04/23 04:25:18;;;;;;;23.48;8.20;;;;;;;4.95;79.66;101557.84;5066087;28;20043;-74
2021/04/23 04:27:44;;;;;;;20.92;8.50;;;;;;;4.91;80.76;101550.09;5053486;28;20100;-73
2021/04/23 04:30:12;;;;;;;23.48;8.68;;;;;;;4.92;80.51;101557.94;5084673;28;20604;-74
2021/04/23 04:32:39;;;;;;;24.83;8.50;;;;;;;5.03;80.88;101562.91;5102835;28;20116;-73
2021/04/23 04:35:07;;;;;;;25.42;8.73;;;;;;;5.05;80.25;101555.94;5082299;28;20069;-70
2021/04/23 04:37:34;;;;;;;25.52;10.40;;;;;;;4.97;80.77;101563.06;5067504;28;20061;-74
2021/04/23 04:40:01;;;;;;;32.85;11.45;;;;;;;5.02;80.62;101569.03;5070479;28;20044;-73
2021/04/23 04:42:27;;;;;;;22.17;9.52;;;;;;;5.06;79.86;101568.06;5110074;27;20399;-73
2021/04/23 04:45:00;;;;;;;27.88;9.50;;;;;;;5.07;79.97;101568.03;5086157;28;20040;-72
2021/04/23 04:47:30;;;;;;;28.30;9.88;;;;;;;5.05;80.58;101567.22;5114935;27;20518;-73
2021/04/23 04:49:58;;;;;;;29.45;10.45;;;;;;;4.97;80.92;101576.09;5064863;28;20043;-70
2021/04/23 04:52:26;;;;;;;24.08;9.75;;;;;;;5.15;79.51;101570.50;5090851;27;20077;-73
2021/04/23 04:54:52;;;;;;;24.30;10.23;;;;;;;5.11;79.30;101567.97;5065878;28;20108;-72
2021/04/23 04:57:19;;;;;;;25.65;8.73;;;;;;;5.15;79.55;101577.47;5095215;28;20064;-73
2021/04/23 04:59:46;;;;;;;21.55;8.20;;;;;;;5.06;80.15;101581.13;5089610;28;20147;-72
2021/04/23 05:02:14;;;;;;;25.10;8.95;;;;;;;5.04;79.86;101581.16;5104798;27;20058;-72
2021/04/23 05:04:41;;;;;;;25.73;9.93;;;;;;;5.12;79.27;101574.91;5084008;28;20104;-72
2021/04/23 05:07:08;;;;;;;32.63;9.40;;;;;;;5.15;79.52;101578.31;5087032;28;20530;-72
2021/04/23 05:09:35;;;;;;;29.65;9.50;;;;;;;5.08;79.35;101582.78;5116244;28;20044;-73
2021/04/23 05:12:01;;;;;;;32.10;9.43;;;;;;;5.22;79.31;101594.69;5117612;28;20083;-74
2021/04/23 05:14:28;;;;;;;27.60;9.55;;;;;;;5.28;78.92;101576.31;5066262;27;20080;-72
2021/04/23 05:16:55;;;;;;;21.80;9.10;;;;;;;5.36;78.27;101582.22;5096177;28;20064;-70
2021/04/23 05:19:21;;;;;;;26.60;9.82;;;;;;;5.33;78.36;101584.91;5060928;28;20509;-73
2021/04/23 05:21:48;;;;;;;23.42;8.32;;;;;;;5.27;78.52;101590.25;5074172;28;20040;-73
2021/04/23 05:24:15;;;;;;;23.30;9.48;;;;;;;5.46;77.92;101593.31;5088920;28;20040;-72
2021/04/23 05:26:42;;;;;;;26.13;9.40;;;;;;;5.68;77.19;101598.94;5088011;28;20059;-69
2021/04/23 05:29:09;;;;;;;24.13;9.88;;;;;;;5.71;76.93;101594.47;5078448;28;20147;-71
2021/04/23 05:31:36;;;;;;;35.30;10.52;;;;;;;5.72;77.04;101597.94;5097039;27;20058;-70
2021/04/23 05:34:03;;;;;;;31.05;10.52;;;;;;;5.52;77.14;101596.66;5070484;28;20146;-70
2021/04/23 05:36:30;;;;;;;24.50;9.63;;;;;;;5.59;77.23;101600.00;5079156;28;20124;-73
2021/04/23 05:38:57;;;;;;;27.88;9.73;;;;;;;5.91;76.08;101601.00;5094774;28;20552;-73
2021/04/23 05:41:23;;;;;;;19.95;7.45;;;;;;;6.11;74.82;101604.00;5080682;28;20051;-73
2021/04/23 05:43:50;;;;;;;17.00;7.55;;;;;;;5.83;76.17;101603.78;5077002;28;20171;-74
2021/04/23 05:46:18;;;;;;;22.48;7.47;;;;;;;5.91;75.45;101601.00;5080550;28;20119;-73
2021/04/23 05:48:46;;;;;;;32.60;9.63;;;;;;;5.93;75.38;101610.53;5060600;28;20138;-72
2021/04/23 05:51:14;;;;;;;32.97;9.30;;;;;;;5.98;74.79;101602.59;5078388;28;20146;-73
2021/04/23 05:53:41;;;;;;;28.70;8.52;;;;;;;6.24;74.33;101607.19;5084852;28;20209;-71
2021/04/23 05:56:08;;;;;;;30.77;8.65;;;;;;;6.87;71.95;101603.75;5094035;28;20057;-74
2021/04/23 05:58:35;;;;;;;27.83;9.40;;;;;;;7.39;69.35;101604.88;5110559;28;20551;-73
2021/04/23 06:01:02;;;;;;;35.25;8.25;;;;;;;7.06;69.69;101604.06;5098334;28;20050;-72
2021/04/23 06:03:29;;;;;;;27.27;7.68;;;;;;;6.87;70.45;101605.50;5099011;28;20527;-72
2021/04/23 06:05:56;;;;;;;26.88;7.15;;;;;;;6.91;70.25;101601.91;5102244;27;20101;-73
2021/04/23 06:08:23;;;;;;;19.40;6.82;;;;;;;6.80;69.82;101604.84;5101333;27;20518;-71
2021/04/23 06:10:50;;;;;;;20.13;6.40;;;;;;;6.63;70.73;101610.53;5107930;27;20209;-72
2021/04/23 06:13:17;;;;;;;22.88;7.35;;;;;;;7.07;69.58;101611.91;5081395;28;20056;-71
2021/04/23 06:15:45;;;;;;;14.18;6.78;;;;;;;7.33;68.00;101611.13;5074868;28;20071;-70
2021/04/23 06:18:11;;;;;;;15.98;5.82;;;;;;;7.27;67.82;101615.72;5073112;28;20059;-74
2021/04/23 06:20:40;;;;;;;23.67;7.13;;;;;;;6.97;68.76;101612.19;5094825;28;20106;-77
2021/04/23 06:23:09;;;;;;;17.85;6.60;;;;;;;7.19;68.41;101612.44;5063861;28;20067;-77
2021/04/23 06:25:36;;;;;;;20.67;6.25;;;;;;;7.12;68.49;101629.25;5076737;28;20059;-76
2021/04/23 06:28:06;;;;;;;18.77;6.88;;;;;;;6.77;69.42;101626.69;5112038;27;20131;-78
2021/04/23 06:30:34;;;;;;;20.83;6.38;;;;;;;6.69;70.14;101633.03;5102145;28;20048;-78
2021/04/23 06:33:08;;;;;;;20.73;5.95;;;;;;;6.78;70.04;101635.41;5116706;27;20118;-75
2021/04/23 06:35:35;;;;;;;22.42;7.22;;;;;;;6.90;68.96;101637.69;5089703;28;20062;-76
2021/04/23 06:38:02;;;;;;;40.53;8.00;;;;;;;6.75;69.31;101638.09;5117805;28;20111;-77
2021/04/23 06:40:29;;;;;;;21.25;7.10;;;;;;;6.69;69.76;101640.88;5076729;27;20039;-73
2021/04/23 06:42:56;;;;;;;21.17;6.35;;;;;;;7.20;68.46;101632.47;5103610;27;20040;-80
2021/04/23 06:45:23;;;;;;;21.02;6.60;;;;;;;6.93;69.90;101629.75;5118012;27;20134;-73
2021/04/23 06:47:50;;;;;;;28.92;6.30;;;;;;;7.36;68.09;101644.25;5090271;28;20057;-73
2021/04/23 06:50:20;;;;;;;22.65;5.85;;;;;;;7.58;66.91;101645.31;5088970;28;20062;-73
2021/04/23 06:52:48;;;;;;;25.63;6.90;;;;;;;6.97;67.68;101636.63;5088426;28;20047;-73
2021/04/23 06:55:16;;;;;;;23.42;7.28;;;;;;;7.39;66.15;101636.31;5070387;28;20470;-73
2021/04/23 06:57:44;;;;;;;22.17;7.28;;;;;;;7.28;65.82;101639.22;5112088;27;20138;-73
2021/04/23 07:00:22;;;;;;;19.80;5.88;;;;;;;7.32;66.32;101640.84;5109002;27;20051;-73
2021/04/23 07:02:49;;;;;;;18.88;5.57;;;;;;;7.02;67.72;101641.72;5067901;28;20127;-73
2021/04/23 07:05:16;;;;;;;20.65;5.32;;;;;;;7.29;66.03;101645.31;5108168;28;20084;-73
2021/04/23 07:07:43;;;;;;;26.33;6.20;;;;;;;7.73;64.74;101646.63;5065327;28;20105;-73
2021/04/23 07:10:13;;;;;;;17.70;4.72;;;;;;;7.70;64.17;101648.47;5103911;28;20100;-74
2021/04/23 07:12:41;;;;;;;17.10;4.82;;;;;;;7.07;65.80;101651.19;5111565;27;20050;-73
2021/04/23 07:15:12;;;;;;;17.63;4.97;;;;;;;7.47;64.76;101654.41;5065827;27;20127;-73
2021/04/23 07:17:38;;;;;;;18.95;5.50;;;;;;;7.70;63.50;101657.22;5094548;28;20093;-74
2021/04/23 07:20:26;;;;;;;18.55;5.57;;;;;;;7.61;62.94;101666.22;5105258;27;20052;-74
2021/04/23 07:22:53;;;;;;;17.63;5.15;;;;;;;7.32;63.38;101648.72;5107881;28;20058;-74
2021/04/23 07:25:21;;;;;;;17.88;4.22;;;;;;;7.60;62.35;101656.59;5083582;28;20114;-74
2021/04/23 07:27:49;;;;;;;12.95;4.65;;;;;;;8.12;59.48;101660.25;5085094;28;20047;-73
2021/04/23 07:30:19;;;;;;;13.25;4.80;;;;;;;8.06;60.87;101662.19;5087112;28;20039;-73
2021/04/23 07:32:47;;;;;;;18.45;4.53;;;;;;;7.80;60.35;101666.50;5096878;27;20538;-73
2021/04/23 07:35:14;;;;;;;15.90;4.20;;;;;;;7.86;59.82;101668.94;5087887;28;20043;-75
2021/04/23 07:37:41;;;;;;;12.52;4.30;;;;;;;7.54;60.52;101667.28;5091583;28;20055;-73
2021/04/23 07:40:10;;;;;;;11.07;3.80;;;;;;;7.88;60.69;101671.53;5111400;27;20637;-74
2021/04/23 07:42:37;;;;;;;16.70;4.38;;;;;;;9.29;56.22;101664.13;5093434;27;20339;-73
2021/04/23 07:45:06;;;;;;;12.50;4.03;;;;;;;8.76;57.87;101662.50;5089058;28;20134;-74
2021/04/23 07:47:33;;;;;;;20.02;5.18;;;;;;;10.18;54.66;101674.69;5083280;28;20075;-74
2021/04/23 07:50:01;;;;;;;16.63;4.30;;;;;;;10.68;53.07;101674.41;5068916;28;20078;-74
2021/04/23 07:52:28;;;;;;;14.38;4.43;;;;;;;9.93;53.58;101672.19;5106418;28;20043;-73
2021/04/23 07:54:57;;;;;;;16.10;4.85;;;;;;;9.18;55.83;101676.78;5084985;28;20039;-74
2021/04/23 07:57:24;;;;;;;21.58;4.78;;;;;;;9.02;56.17;101672.09;5070139;28;20067;-74
2021/04/23 07:59:51;;;;;;;21.17;4.60;;;;;;;8.34;57.60;101675.28;5102468;28;20047;-74
2021/04/23 08:02:17;;;;;;;26.08;5.25;;;;;;;8.59;56.81;101675.34;5089103;28;20051;-73
2021/04/23 08:04:44;;;;;;;17.35;3.80;;;;;;;8.96;56.51;101680.22;5096826;28;20126;-74
2021/04/23 08:07:12;;;;;;;14.15;4.40;;;;;;;9.46;54.81;101671.41;5118253;27;20115;-74
2021/04/23 08:09:39;;;;;;;22.02;4.80;;;;;;;10.09;53.09;101673.28;5073630;28;20473;-73
2021/04/23 08:12:07;;;;;;;17.75;4.25;;;;;;;9.94;52.83;101671.25;5101389;27;20040;-74
2021/04/23 08:14:35;;;;;;;25.92;4.80;;;;;;;10.11;52.78;101668.81;5069502;27;20135;-74
2021/04/23 08:17:06;;;;;;;20.48;3.80;;;;;;;11.34;48.69;101671.50;5085968;28;20056;-74
2021/04/23 08:19:34;;;;;;;15.70;3.42;;;;;;;10.61;50.07;101671.16;5088196;28;20072;-74
2021/04/23 08:22:03;;;;;;;12.05;3.75;;;;;;;11.64;46.85;101677.16;5085686;28;20052;-75
2021/04/23 08:24:30;;;;;;;14.20;3.92;;;;;;;13.35;43.45;101673.88;5090064;27;20039;-74
2021/04/23 08:26:57;;;;;;;16.08;4.10;;;;;;;13.26;42.16;101665.59;5102921;28;20039;-74
2021/04/23 08:29:24;;;;;;;14.00;3.80;;;;;;;13.36;42.60;101678.22;5103984;27;20418;-73
2021/04/23 08:31:50;;;;;;;17.80;3.78;;;;;;;15.23;38.96;101679.88;5085518;28;20112;-74
2021/04/23 08:34:17;;;;;;;13.88;3.40;;;;;;;14.58;39.35;101677.59;5082670;27;20397;-73
2021/04/23 08:36:44;;;;;;;11.85;3.55;;;;;;;12.89;42.72;101680.72;5087037;28;20094;-73
2021/04/23 08:39:12;;;;;;;11.52;4.20;;;;;;;12.34;44.86;101687.00;5086888;28;20646;-75
2021/04/23 08:41:40;;;;;;;15.48;4.22;;;;;;;11.50;47.00;101690.13;5069812;28;20105;-74
2021/04/23 08:44:08;;;;;;;18.52;4.35;;;;;;;11.39;47.64;101691.47;5085556;28;20096;-73
2021/04/23 08:46:36;;;;;;;17.58;5.03;;;;;;;10.75;49.51;101696.91;5081386;28;20059;-72
2021/04/23 08:49:05;;;;;;;15.77;3.88;;;;;;;10.79;48.81;101690.59;5066910;28;20140;-74
2021/04/23 08:51:34;;;;;;;17.95;4.03;;;;;;;10.42;50.05;101693.06;5102409;27;20058;-72
2021/04/23 08:54:02;;;;;;;21.35;5.05;;;;;;;11.00;49.93;101696.72;5083287;27;21143;-72
2021/04/23 08:56:29;;;;;;;25.98;4.50;;;;;;;10.74;49.29;101696.97;5072841;28;20044;-72
2021/04/23 08:58:56;;;;;;;13.48;4.22;;;;;;;10.29;50.34;101700.59;5069833;28;20063;-71
2021/04/23 09:01:23;;;;;;;17.70;6.10;;;;;;;10.66;49.70;101689.41;5089320;28;20048;-72
2021/04/23 09:03:50;;;;;;;18.90;4.85;;;;;;;10.76;48.94;101695.13;5081657;28;20065;-71
2021/04/23 09:06:21;;;;;;;14.50;3.55;;;;;;;11.56;47.77;101690.69;5093818;28;20044;-72
2021/04/23 09:08:54;;;;;;;12.60;3.63;;;;;;;11.49;48.58;101681.34;5114410;28;20066;-73
2021/04/23 09:11:24;;;;;;;13.32;3.40;;;;;;;10.34;50.54;101693.38;5085733;28;20081;-71
2021/04/23 09:14:05;;;;;;;19.70;4.15;;;;;;;10.48;50.75;101693.66;5088445;28;20142;-72
2021/04/23 09:16:44;;;;;;;16.15;3.50;;;;;;;10.80;49.19;101697.56;5070505;28;20097;-72
2021/04/23 09:19:24;;;;;;;12.25;4.07;;;;;;;10.84;48.44;101709.69;5096723;28;20158;-72
2021/04/23 09:22:04;;;;;;;10.60;4.07;;;;;;;10.59;48.94;101701.97;5098719;28;20070;-71
2021/04/23 09:24:34;;;;;;;12.80;3.33;;;;;;;10.83;48.76;101701.88;5103402;28;20505;-72
2021/04/23 09:27:17;;;;;;;17.67;4.20;;;;;;;11.23;48.54;101694.84;5103415;28;20122;-71
2021/04/23 09:29:46;;;;;;;10.50;3.22;;;;;;;12.06;46.38;101698.03;5093777;28;20064;-71
2021/04/23 09:32:15;;;;;;;12.27;2.88;;;;;;;12.10;45.97;101699.59;5060165;28;20120;-70
2021/04/23 09:35:02;;;;;;;28.38;5.80;;;;;;;11.39;47.51;101698.50;5098392;28;20044;-73
2021/04/23 09:37:50;;;;;;;14.00;3.50;;;;;;;11.32;46.89;101697.09;5068432;28;20674;-71
2021/04/23 09:40:20;;;;;;;17.30;4.50;;;;;;;11.20;46.23;101692.34;5079582;27;20052;-71
2021/04/23 09:42:54;;;;;;;15.68;3.55;;;;;;;11.45;45.85;101681.56;5078774;28;20121;-71
2021/04/23 09:45:27;;;;;;;17.45;3.70;;;;;;;11.84;45.43;101687.66;5064708;28;20581;-72
2021/04/23 09:47:54;;;;;;;16.27;3.55;;;;;;;11.75;46.41;101690.72;5097691;28;20088;-72
2021/04/23 09:50:27;;;;;;;15.52;3.42;;;;;;;11.14;48.31;101690.84;5081420;28;20072;-73
2021/04/23 09:52:56;;;;;;;11.70;3.83;;;;;;;11.24;47.59;101673.69;5084290;28;20040;-73
2021/04/23 09:55:28;;;;;;;10.98;3.05;;;;;;;10.98;46.93;101698.56;5071833;28;20134;-71
2021/04/23 09:57:57;;;;;;;9.20;2.90;;;;;;;11.56;45.19;101690.69;5089102;28;20063;-72
2021/04/23 10:00:26;;;;;;;14.32;3.17;;;;;;;11.77;44.63;101688.00;5079895;28;20180;-72
2021/04/23 10:02:58;;;;;;;13.25;3.35;;;;;;;11.12;45.29;101695.31;5084109;28;20036;-72
2021/04/23 10:05:29;;;;;;;12.32;3.13;;;;;;;11.47;43.68;101691.09;5065371;28;20043;-71
2021/04/23 10:07:56;;;;;;;14.20;3.15;;;;;;;11.57;44.10;101689.78;5096751;28;20593;-72
2021/04/23 10:10:23;;;;;;;14.23;3.30;;;;;;;11.74;43.67;101688.97;5065710;28;20060;-72
2021/04/23 10:12:53;;;;;;;15.98;3.15;;;;;;;12.53;43.05;101683.44;5053844;28;20262;-72
2021/04/23 10:15:40;;;;;;;18.98;3.67;;;;;;;12.67;41.93;101689.75;5085118;28;20506;-70
2021/04/23 10:18:12;;;;;;;10.45;2.83;;;;;;;13.20;41.51;101690.53;5076504;28;20051;-71
2021/04/23 10:20:42;;;;;;;14.05;3.20;;;;;;;13.29;40.86;101683.94;5102587;28;20073;-72
2021/04/23 10:23:13;;;;;;;10.70;2.88;;;;;;;12.73;41.33;101688.56;5083579;28;20578;-71
2021/04/23 10:25:40;;;;;;;14.88;2.75;;;;;;;13.15;40.54;101685.50;5079249;28;20261;-72
2021/04/23 10:28:09;;;;;;;14.55;3.50;;;;;;;12.62;41.58;101690.91;5082087;28;20523;-72
2021/04/23 10:30:39;;;;;;;10.00;3.00;;;;;;;12.01;42.47;101684.19;5091451;28;20055;-72
2021/04/23 10:33:08;;;;;;;13.95;2.67;;;;;;;12.33;41.51;101693.19;5083369;28;20557;-71
2021/04/23 10:35:37;;;;;;;11.30;2.70;;;;;;;12.92;40.81;101678.78;5090168;28;20069;-71
2021/04/23 10:38:12;;;;;;;23.63;6.03;;;;;;;13.57;39.80;101668.28;5096903;28;20048;-72
2021/04/23 10:40:39;;;;;;;22.27;8.05;;;;;;;13.55;39.94;101685.16;5063343;28;20847;-72
2021/04/23 10:43:15;;;;;;;17.25;7.50;;;;;;;13.32;39.57;101681.13;5097510;28;20845;-72
2021/04/23 10:45:45;;;;;;;19.80;6.10;;;;;;;13.32;40.52;101678.47;5096901;28;20087;-70
2021/04/23 10:48:12;;;;;;;10.90;3.03;;;;;;;12.98;39.37;101682.88;5084972;28;20056;-73
2021/04/23 10:59:07;;;;;;;19.40;2.70;;;;;;;12.42;40.29;101697.16;5086884;28;20121;-72
2021/04/23 11:01:39;;;;;;;15.15;3.30;;;;;;;13.05;39.66;101686.91;5081193;28;20960;-71
2021/04/23 11:04:12;;;;;;;7.47;2.13;;;;;;;13.18;38.04;101695.91;5050199;28;20044;-72
2021/04/23 11:06:44;;;;;;;12.85;3.78;;;;;;;12.50;38.99;101705.56;5094523;28;20044;-71
2021/04/23 11:09:14;;;;;;;13.98;3.05;;;;;;;11.88;41.19;101705.03;5096389;28;20065;-71
2021/04/23 11:11:41;;;;;;;7.95;2.20;;;;;;;11.68;41.82;101698.97;5080445;28;20048;-71
2021/04/23 11:14:27;;;;;;;11.63;2.80;;;;;;;11.50;41.78;101704.16;5083154;28;20111;-72
2021/04/23 11:17:17;;;;;;;15.02;3.38;;;;;;;12.21;40.74;101703.53;5087876;28;20078;-71
2021/04/23 11:19:48;;;;;;;9.50;2.13;;;;;;;12.52;39.83;101703.72;5088258;28;20044;-72
2021/04/23 11:22:16;;;;;;;16.23;3.17;;;;;;;12.49;40.18;101700.38;5085083;28;20059;-72
2021/04/23 11:25:16;;;;;;;11.73;2.28;;;;;;;12.07;40.84;101704.19;5080404;28;20070;-72
2021/04/23 11:28:08;;;;;;;11.93;2.63;;;;;;;11.98;40.52;101709.88;5082164;28;20130;-72
2021/04/23 11:30:54;;;;;;;11.82;2.42;;;;;;;11.80;40.23;101712.44;5080125;28;20063;-71
2021/04/23 11:33:39;;;;;;;;;;;;;;;11.88;40.80;101712.09;5081408;28;20040;-72
2021/04/23 11:36:24;;;;;;;12.48;2.55;;;;;;;12.09;38.53;101705.81;5078513;28;19924;-71
2021/04/23 11:38:56;;;;;;;13.00;2.38;;;;;;;12.55;38.66;101706.19;5042956;28;20087;-72
2021/04/23 11:41:22;;;;;;;7.85;2.42;;;;;;;12.39;38.32;101708.75;5086285;27;20119;-72
2021/04/23 11:43:49;;;;;;;15.13;2.20;;;;;;;12.22;38.69;101710.50;5071598;28;20051;-71